createdAt,value
2019-05-02T00:04:55.847Z,23.43
2019-05-02T00:10:56.096Z,19.60
2019-05-02T00:13:24.551Z,20.07
2019-05-02T00:16:32.818Z,18.40
2019-05-02T00:19:01.229Z,26.10
2019-05-02T00:21:32.890Z,21.43
2019-05-02T00:24:18.878Z,19.93
2019-05-02T00:30:16.286Z,19.97
2019-05-02T00:33:03.946Z,21.33
2019-05-02T00:35:51.599Z,25.60
2019-05-02T00:38:20.014Z,15.73
2019-05-02T00:40:48.416Z,16.20
2019-05-02T00:43:16.829Z,17.17
2019-05-02T00:46:04.477Z,24.00
2019-05-02T00:53:48.446Z,20.50
2019-05-02T00:56:16.125Z,17.43
2019-05-02T00:58:44.532Z,16.40
2019-05-02T01:01:51.321Z,15.73
2019-05-02T01:04:38.900Z,18.80
2019-05-02T01:12:32.010Z,19.00
2019-05-02T01:15:03.354Z,17.57
2019-05-02T01:17:49.930Z,18.50
2019-05-02T01:20:37.461Z,17.50
2019-05-02T01:23:05.869Z,18.07
2019-05-02T01:25:34.279Z,18.33
2019-05-02T01:28:21.797Z,20.43
2019-05-02T01:38:55.608Z,21.20
2019-05-02T01:41:43.257Z,21.00
2019-05-02T01:44:11.669Z,16.60
2019-05-02T01:47:00.068Z,15.33
2019-05-02T01:49:29.703Z,19.50
2019-05-02T01:51:58.104Z,14.33
2019-05-02T01:54:26.523Z,20.13
2019-05-02T01:56:54.914Z,17.97
2019-05-02T02:02:37.650Z,20.93
2019-05-02T02:05:45.966Z,18.57
2019-05-02T02:08:14.364Z,20.80
2019-05-02T02:11:02.025Z,22.33
2019-05-02T02:13:31.165Z,24.10
2019-05-02T02:16:04.545Z,18.30
2019-05-02T02:18:50.033Z,19.80
2019-05-02T02:26:55.418Z,24.87
2019-05-02T02:31:57.808Z,22.93
2019-05-02T02:34:29.225Z,24.40
2019-05-02T02:36:56.345Z,18.63
2019-05-02T02:39:24.739Z,21.87
2019-05-02T02:42:12.407Z,26.70
2019-05-02T02:44:59.943Z,28.80
2019-05-02T02:50:42.446Z,26.57
2019-05-02T02:53:06.609Z,27.47
2019-05-02T02:56:00.829Z,26.37
2019-05-02T02:58:46.232Z,28.50
2019-05-02T03:01:13.651Z,29.53
2019-05-02T03:04:21.963Z,29.03
2019-05-02T03:06:50.378Z,30.97
2019-05-02T03:12:25.353Z,32.87
2019-05-02T03:15:33.678Z,35.50
2019-05-02T03:18:02.286Z,29.10
2019-05-02T03:20:39.597Z,36.07
2019-05-02T03:23:42.231Z,33.10
2019-05-02T03:26:28.910Z,33.27
2019-05-02T03:29:00.208Z,28.40
2019-05-02T03:31:46.630Z,32.63
2019-05-02T03:34:47.189Z,36.33
2019-05-02T03:37:23.701Z,34.50
2019-05-02T03:40:11.356Z,29.00
2019-05-02T03:45:47.830Z,37.03
2019-05-02T03:48:35.476Z,35.50
2019-05-02T03:51:25.297Z,33.10
2019-05-02T04:02:29.998Z,33.17
2019-05-02T04:05:40.332Z,32.13
2019-05-02T04:08:19.929Z,33.70
2019-05-02T04:11:17.248Z,37.13
2019-05-02T04:14:37.546Z,35.43
2019-05-02T04:17:14.896Z,38.97
2019-05-02T04:20:23.209Z,38.13
2019-05-02T04:26:26.096Z,34.13
2019-05-02T04:29:13.741Z,41.90
2019-05-02T04:32:04.283Z,33.10
2019-05-02T04:34:55.149Z,40.17
2019-05-02T04:37:20.782Z,38.93
2019-05-02T04:39:53.591Z,46.87
2019-05-02T04:42:22.865Z,39.30
2019-05-02T04:50:51.776Z,44.13
2019-05-02T04:53:45.027Z,34.40
2019-05-02T04:56:29.759Z,36.70
2019-05-02T04:59:22.525Z,35.50
2019-05-02T05:02:09.098Z,43.30
2019-05-02T05:04:41.948Z,39.57
2019-05-02T05:07:09.257Z,41.90
2019-05-02T05:12:47.900Z,39.03
2019-05-02T05:15:33.743Z,44.40
2019-05-02T05:18:10.566Z,41.30
2019-05-02T05:20:37.908Z,41.47
2019-05-02T05:23:24.569Z,33.83
2019-05-02T05:26:12.218Z,41.67
2019-05-02T05:28:44.404Z,51.43
2019-05-02T05:31:10.747Z,39.53
2019-05-02T05:33:58.400Z,40.53
2019-05-02T05:36:32.521Z,47.73
2019-05-02T05:38:58.238Z,42.37
2019-05-02T05:46:58.030Z,43.53
2019-05-02T05:52:37.649Z,37.70
2019-05-02T05:55:24.383Z,42.03
2019-05-02T05:57:59.544Z,38.47
2019-05-02T06:03:14.147Z,42.50
2019-05-02T06:05:42.302Z,38.93
2019-05-02T06:08:13.866Z,37.80
2019-05-02T06:11:01.180Z,47.80
2019-05-02T06:13:29.590Z,57.03
2019-05-02T06:16:17.112Z,43.33
2019-05-02T06:19:04.633Z,36.83
2019-05-02T06:21:33.042Z,38.47
2019-05-02T06:24:01.465Z,39.97
2019-05-02T06:26:29.875Z,40.03
2019-05-02T06:29:18.640Z,42.23
2019-05-02T06:32:06.770Z,39.73
2019-05-02T06:34:38.793Z,41.10
2019-05-02T06:37:49.581Z,41.43
2019-05-02T06:40:34.676Z,39.30
2019-05-02T06:43:04.283Z,37.70
2019-05-02T06:45:52.342Z,46.23
2019-05-02T06:48:20.753Z,37.13
2019-05-02T06:51:11.044Z,42.77
2019-05-02T06:53:41.291Z,40.00
2019-05-02T06:58:56.176Z,38.77
2019-05-02T07:01:24.589Z,43.10
2019-05-02T07:03:52.991Z,48.13
2019-05-02T07:06:55.991Z,44.43
2019-05-02T07:12:46.197Z,44.47
2019-05-02T07:15:54.982Z,50.37
2019-05-02T07:23:33.799Z,46.43
2019-05-02T07:26:23.293Z,49.00
2019-05-02T07:28:51.581Z,44.30
2019-05-02T07:31:19.980Z,46.50
2019-05-02T07:33:48.407Z,39.70
2019-05-02T07:36:16.809Z,49.03
2019-05-02T07:38:45.223Z,46.07
2019-05-02T07:41:13.694Z,38.50
2019-05-02T07:43:42.105Z,46.43
2019-05-02T07:46:10.503Z,51.83
2019-05-02T07:48:38.908Z,44.63
2019-05-02T07:51:07.308Z,39.13
2019-05-02T07:53:35.827Z,40.57
2019-05-02T07:56:04.459Z,42.40
2019-05-02T07:58:32.881Z,46.20
2019-05-02T08:01:01.281Z,42.33
2019-05-02T08:03:33.523Z,38.60
2019-05-02T08:06:00.044Z,45.83
2019-05-02T08:08:29.818Z,52.33
2019-05-02T08:11:01.836Z,45.70
2019-05-02T08:13:31.327Z,44.00
2019-05-02T08:15:58.809Z,50.67
2019-05-02T08:21:22.307Z,45.03
2019-05-02T08:23:50.715Z,38.70
2019-05-02T08:26:21.723Z,50.57
2019-05-02T08:36:53.485Z,40.53
2019-05-02T08:39:25.991Z,48.30
2019-05-02T08:45:01.444Z,48.10
2019-05-02T08:47:30.668Z,50.00
2019-05-02T08:50:18.175Z,44.40
2019-05-02T08:55:53.361Z,52.30
2019-05-02T08:58:21.770Z,48.00
2019-05-02T09:01:13.656Z,44.00
2019-05-02T09:06:27.018Z,40.83
2019-05-02T09:09:14.768Z,41.60
2019-05-02T09:14:32.194Z,47.17
2019-05-02T09:17:08.861Z,41.13
2019-05-02T09:19:34.541Z,50.10
2019-05-02T09:22:22.072Z,45.37
2019-05-02T09:24:52.011Z,43.97
2019-05-02T09:27:22.305Z,53.37
2019-05-02T09:29:51.914Z,42.93
2019-05-02T09:32:41.717Z,43.30
2019-05-02T09:35:51.593Z,50.67
2019-05-02T09:38:22.111Z,38.80
2019-05-02T09:40:54.582Z,50.17
2019-05-02T09:43:22.348Z,42.33
2019-05-02T09:45:52.027Z,55.90
2019-05-02T09:48:40.039Z,49.40
2019-05-02T09:51:16.429Z,46.87
2019-05-02T09:54:02.741Z,41.57
2019-05-02T09:56:28.015Z,42.03
2019-05-02T10:04:43.475Z,41.30
2019-05-02T10:10:44.180Z,40.03
2019-05-02T10:13:09.781Z,41.10
2019-05-02T10:16:22.752Z,36.60
2019-05-02T10:24:51.863Z,34.30
2019-05-02T10:27:21.651Z,33.63
2019-05-02T10:29:52.334Z,34.67
2019-05-02T10:32:20.281Z,36.13
2019-05-02T10:37:55.244Z,34.40
2019-05-02T10:40:23.664Z,39.03
2019-05-02T10:42:52.306Z,38.20
2019-05-02T10:51:31.608Z,33.50
2019-05-02T10:54:02.283Z,31.00
2019-05-02T10:56:32.415Z,33.77
2019-05-02T11:02:08.028Z,36.33
2019-05-02T11:10:21.787Z,30.47
2019-05-02T11:13:28.957Z,36.80
2019-05-02T11:16:16.480Z,37.67
2019-05-02T11:19:04.011Z,34.03
2019-05-02T11:21:32.423Z,36.70
2019-05-02T11:26:48.278Z,31.43
2019-05-02T11:29:16.677Z,34.83
2019-05-02T11:32:04.336Z,35.37
2019-05-02T11:34:32.836Z,35.13
2019-05-02T11:37:22.536Z,35.00
2019-05-02T11:42:38.048Z,46.93
2019-05-02T11:45:46.363Z,37.70
2019-05-02T11:48:34.019Z,31.47
2019-05-02T11:51:02.768Z,30.00
2019-05-02T11:53:32.715Z,38.10
2019-05-02T11:56:07.236Z,36.43
2019-05-02T12:01:35.039Z,34.37
2019-05-02T12:04:14.950Z,42.70
2019-05-02T12:07:01.204Z,36.10
2019-05-02T12:09:52.090Z,39.20
2019-05-02T12:12:18.380Z,40.87
2019-05-02T12:17:34.240Z,37.63
2019-05-02T12:20:22.750Z,39.07
2019-05-02T12:25:25.859Z,32.87
2019-05-02T12:28:13.381Z,40.40
2019-05-02T12:30:42.100Z,40.17
2019-05-02T12:35:47.527Z,36.67
2019-05-02T12:38:23.262Z,43.00
2019-05-02T12:43:41.605Z,43.73
2019-05-02T12:46:11.705Z,50.10
2019-05-02T12:49:00.176Z,43.43
2019-05-02T12:51:28.649Z,46.97
2019-05-02T12:53:57.063Z,46.00
2019-05-02T12:56:25.460Z,53.67
2019-05-02T13:01:27.915Z,50.17
2019-05-02T13:06:49.970Z,49.60
2019-05-02T13:09:18.376Z,55.83
2019-05-02T13:15:15.819Z,48.00
2019-05-02T13:18:03.389Z,52.30
2019-05-02T13:20:52.720Z,50.80
2019-05-02T13:23:59.399Z,52.43
2019-05-02T13:26:27.803Z,56.63
2019-05-02T13:28:56.220Z,51.90
2019-05-02T13:31:43.742Z,60.00
2019-05-02T13:34:31.949Z,59.43
2019-05-02T13:40:17.083Z,58.80
2019-05-02T13:45:38.109Z,50.97
2019-05-02T13:51:03.741Z,50.17
2019-05-02T13:56:26.452Z,55.27
2019-05-02T13:59:14.025Z,50.90
2019-05-02T14:04:52.144Z,43.67
2019-05-02T14:13:09.689Z,56.47
2019-05-02T14:21:02.791Z,65.33
2019-05-02T14:23:51.831Z,57.93
2019-05-02T14:26:29.633Z,59.47
2019-05-02T14:34:18.494Z,65.00
2019-05-02T14:37:06.010Z,61.23
2019-05-02T14:39:34.443Z,56.10
2019-05-02T14:42:03.155Z,62.17
2019-05-02T14:45:00.292Z,60.17
2019-05-02T14:47:22.368Z,56.93
2019-05-02T14:53:04.738Z,59.20
2019-05-02T14:56:13.040Z,55.67
2019-05-02T14:58:42.731Z,51.47
2019-05-02T15:01:52.733Z,52.93
2019-05-02T15:04:22.635Z,52.23
2019-05-02T15:07:12.897Z,49.83
2019-05-02T15:10:02.670Z,44.17
2019-05-02T15:12:32.437Z,42.57
2019-05-02T15:15:02.356Z,41.50
2019-05-02T15:17:33.653Z,45.43
2019-05-02T15:20:20.048Z,43.83
2019-05-02T15:23:14.329Z,43.63
2019-05-02T15:31:11.846Z,36.33
2019-05-02T15:36:19.695Z,40.23
2019-05-02T15:38:48.109Z,35.50
2019-05-02T15:41:39.832Z,36.23
2019-05-02T15:47:05.125Z,36.80
2019-05-02T15:52:27.838Z,29.80
2019-05-02T15:54:59.769Z,37.97
2019-05-02T15:57:25.923Z,31.63
2019-05-02T16:02:48.993Z,32.47
2019-05-02T16:05:41.073Z,34.80
2019-05-02T16:08:26.024Z,28.80
2019-05-02T16:11:16.821Z,32.53
2019-05-02T16:19:29.149Z,38.07
2019-05-02T16:22:13.870Z,32.70
2019-05-02T16:25:01.778Z,33.17
2019-05-02T16:27:49.262Z,36.93
2019-05-02T16:30:41.559Z,31.37
2019-05-02T16:33:26.257Z,30.27
2019-05-02T16:36:13.939Z,31.03
2019-05-02T16:38:42.526Z,29.50
2019-05-02T16:41:32.543Z,31.37
2019-05-02T16:46:49.392Z,32.87
2019-05-02T16:49:18.749Z,29.63
2019-05-02T16:51:47.943Z,29.47
2019-05-02T16:54:16.369Z,34.93
2019-05-02T16:59:21.481Z,27.20
2019-05-02T17:04:23.509Z,27.10
2019-05-02T17:09:46.443Z,32.57
2019-05-02T17:15:43.852Z,35.77
2019-05-02T17:18:32.698Z,36.47
2019-05-02T17:21:22.183Z,34.60
2019-05-02T17:23:52.362Z,35.00
2019-05-02T17:26:22.842Z,31.80
2019-05-02T17:29:11.939Z,28.67
2019-05-02T17:31:59.964Z,28.63
2019-05-02T17:34:47.614Z,28.90
2019-05-02T17:37:16.029Z,27.70
2019-05-02T17:42:32.360Z,25.30
2019-05-02T17:45:03.966Z,25.87
2019-05-02T17:47:36.250Z,24.30
2019-05-02T17:50:22.098Z,24.30
2019-05-02T17:53:11.696Z,20.20
2019-05-02T17:56:23.178Z,19.50
2019-05-02T17:58:54.196Z,23.40
2019-05-02T18:01:41.824Z,26.33
2019-05-02T18:04:29.453Z,18.97
2019-05-02T18:09:46.225Z,21.27
2019-05-02T18:12:21.779Z,18.33
2019-05-02T18:15:09.705Z,17.47
2019-05-02T18:17:38.112Z,20.70
2019-05-02T18:20:46.666Z,18.70
2019-05-02T18:23:35.908Z,14.50
2019-05-02T18:26:06.233Z,12.33
2019-05-02T18:28:57.134Z,8.90
2019-05-02T18:31:23.915Z,6.77
2019-05-02T18:33:52.312Z,13.17
2019-05-02T18:36:41.674Z,8.53
2019-05-02T18:39:10.069Z,5.10
2019-05-02T18:41:57.589Z,8.87
2019-05-02T18:44:25.983Z,5.03
2019-05-02T18:47:20.368Z,7.57
2019-05-02T18:49:43.614Z,7.20
2019-05-02T18:52:12.017Z,7.33
2019-05-02T18:55:01.526Z,3.77
2019-05-02T18:57:29.870Z,5.90
2019-05-02T19:00:17.521Z,9.20
2019-05-02T19:03:07.612Z,5.60
2019-05-02T19:05:57.336Z,2.57
2019-05-02T19:08:49.640Z,5.70
2019-05-02T19:11:14.766Z,4.40
2019-05-02T19:14:02.721Z,4.10
2019-05-02T19:16:52.169Z,2.90
2019-05-02T19:19:22.555Z,3.30
2019-05-02T19:24:27.434Z,7.07
2019-05-02T19:30:09.807Z,3.80
2019-05-02T19:32:57.854Z,3.33
2019-05-02T19:35:49.884Z,14.87
2019-05-02T19:38:21.718Z,2.93
2019-05-02T19:41:09.212Z,5.43
2019-05-02T19:43:40.319Z,9.30
2019-05-02T19:49:02.117Z,4.20
2019-05-02T19:51:31.774Z,5.87
2019-05-02T19:54:03.617Z,11.40
2019-05-02T19:59:26.845Z,8.63
2019-05-02T20:02:15.424Z,3.37
2019-05-02T20:04:44.329Z,7.83
2019-05-02T20:07:13.934Z,11.17
2019-05-02T20:10:01.957Z,8.73
2019-05-02T20:12:52.789Z,5.23
2019-05-02T20:18:48.632Z,3.57
2019-05-02T20:21:36.137Z,9.67
2019-05-02T20:24:44.446Z,11.37
2019-05-02T20:27:33.043Z,5.17
2019-05-02T20:30:02.986Z,5.40
2019-05-02T20:32:32.335Z,8.03
2019-05-02T20:35:20.013Z,8.77
2019-05-02T20:38:07.677Z,5.27
2019-05-02T20:41:15.984Z,3.60
2019-05-02T20:44:03.677Z,13.87
2019-05-02T20:46:51.601Z,7.83
2019-05-02T20:49:21.373Z,3.43
2019-05-02T20:51:51.688Z,8.87
2019-05-02T20:54:19.877Z,8.50
2019-05-02T20:59:35.780Z,7.47
2019-05-02T21:02:23.430Z,9.55
2019-05-02T21:05:11.870Z,10.13
2019-05-02T21:08:01.888Z,13.67
2019-05-02T21:10:49.444Z,9.13
2019-05-02T21:13:17.967Z,5.53
2019-05-02T21:16:05.607Z,17.53
2019-05-02T21:18:34.153Z,9.20
2019-05-02T21:21:22.000Z,8.57
2019-05-02T21:23:52.893Z,9.87
2019-05-02T21:26:42.164Z,9.10
2019-05-02T21:29:12.121Z,9.83
2019-05-02T21:31:42.553Z,12.13
2019-05-02T21:34:31.829Z,8.37
2019-05-02T21:37:22.445Z,6.03
2019-05-02T21:39:52.045Z,14.00
2019-05-02T21:42:39.734Z,10.10
2019-05-02T21:45:28.966Z,5.67
2019-05-02T21:47:57.370Z,25.33
2019-05-02T21:50:44.927Z,19.47
2019-05-02T21:53:56.065Z,28.67
2019-05-02T21:57:00.276Z,7.77
2019-05-02T21:59:47.803Z,16.50
2019-05-02T22:05:45.192Z,14.80
2019-05-02T22:11:07.867Z,8.37
2019-05-02T22:13:36.261Z,6.83
2019-05-02T22:16:23.992Z,11.37
2019-05-02T22:19:11.733Z,10.43
2019-05-02T22:21:59.369Z,14.70
2019-05-02T22:24:27.764Z,6.97
2019-05-02T22:27:15.467Z,8.77
2019-05-02T22:29:43.866Z,12.33
2019-05-02T22:32:32.118Z,9.80
2019-05-02T22:35:21.674Z,14.60
2019-05-02T22:40:41.719Z,15.83
2019-05-02T22:43:29.381Z,5.83
2019-05-02T22:46:16.897Z,7.83
2019-05-02T22:49:04.415Z,7.47
2019-05-02T22:51:32.809Z,11.00
2019-05-02T22:54:27.766Z,7.83
2019-05-02T22:57:11.543Z,16.83
2019-05-02T22:59:39.678Z,9.67
2019-05-02T23:02:27.193Z,11.17
2019-05-02T23:04:55.599Z,6.40
2019-05-02T23:07:43.306Z,19.10
2019-05-02T23:10:51.996Z,8.63
2019-05-02T23:13:22.002Z,12.70
2019-05-02T23:15:52.203Z,10.37
2019-05-02T23:18:42.618Z,5.83
2019-05-02T23:21:12.678Z,10.80
2019-05-02T23:23:41.772Z,10.27
2019-05-02T23:29:09.237Z,9.87
2019-05-02T23:31:37.627Z,6.90
2019-05-02T23:34:25.284Z,10.07
2019-05-02T23:37:12.802Z,9.00
2019-05-02T23:39:41.736Z,12.23
2019-05-02T23:42:13.399Z,20.83
2019-05-02T23:44:42.579Z,8.53
2019-05-02T23:47:11.802Z,16.97
2019-05-02T23:50:22.856Z,10.80
2019-05-02T23:53:31.683Z,18.90
2019-05-02T23:58:34.488Z,11.60
